createdAt,value
2022-10-11T00:00:19.210Z,13.72
2022-10-11T00:02:51.892Z,13.70
2022-10-11T00:05:22.026Z,13.63
2022-10-11T00:07:52.157Z,13.62
2022-10-11T00:10:23.660Z,13.60
2022-10-11T00:12:54.871Z,13.57
2022-10-11T00:15:25.465Z,13.52
2022-10-11T00:18:02.140Z,13.54
2022-10-11T00:20:34.695Z,13.51
2022-10-11T00:23:04.733Z,13.40
2022-10-11T00:25:34.771Z,13.30
2022-10-11T00:28:04.781Z,13.18
2022-10-11T00:30:35.437Z,13.24
2022-10-11T00:33:08.195Z,13.09
2022-10-11T00:35:38.279Z,13.00
2022-10-11T00:38:08.228Z,12.85
2022-10-11T00:40:38.372Z,12.78
2022-10-11T00:43:17.401Z,12.73
2022-10-11T00:46:05.526Z,12.62
2022-10-11T00:48:45.045Z,12.58
2022-10-11T00:51:23.468Z,12.60
2022-10-11T00:53:56.085Z,12.55
2022-10-11T00:56:33.366Z,12.62
2022-10-11T00:59:08.611Z,12.67
2022-10-11T01:01:39.005Z,12.67
2022-10-11T01:04:11.871Z,12.59
2022-10-11T01:06:44.029Z,12.66
2022-10-11T01:09:16.345Z,12.62
2022-10-11T01:11:47.197Z,12.47
2022-10-11T01:14:59.010Z,12.38
2022-10-11T01:17:47.761Z,12.33
2022-10-11T01:20:39.989Z,12.26
2022-10-11T01:24:04.696Z,12.18
2022-10-11T01:27:33.365Z,12.14
2022-10-11T01:30:20.662Z,12.05
2022-10-11T01:33:02.506Z,12.03
2022-10-11T01:35:43.597Z,12.05
2022-10-11T01:38:24.613Z,12.02
2022-10-11T01:41:01.078Z,11.96
2022-10-11T01:43:33.092Z,11.98
2022-10-11T01:46:08.635Z,11.98
2022-10-11T01:48:51.158Z,12.06
2022-10-11T01:51:26.246Z,11.96
2022-10-11T01:54:16.365Z,12.01
2022-10-11T01:57:17.137Z,12.13
2022-10-11T02:00:01.737Z,12.14
2022-10-11T02:03:04.922Z,12.27
2022-10-11T02:05:49.174Z,12.33
2022-10-11T02:08:28.341Z,12.23
2022-10-11T02:11:10.223Z,12.02
2022-10-11T02:13:48.989Z,11.92
2022-10-11T02:16:28.641Z,11.85
2022-10-11T02:19:06.313Z,11.73
2022-10-11T02:21:41.713Z,11.71
2022-10-11T02:24:19.332Z,11.62
2022-10-11T02:26:55.471Z,11.60
2022-10-11T02:29:30.400Z,11.68
2022-10-11T02:32:03.717Z,11.60
2022-10-11T02:34:42.274Z,11.54
2022-10-11T02:37:24.348Z,11.49
2022-10-11T02:40:01.080Z,11.38
2022-10-11T02:42:39.870Z,11.42
2022-10-11T02:45:20.112Z,11.41
2022-10-11T02:47:51.217Z,11.35
2022-10-11T02:50:26.145Z,11.36
2022-10-11T02:52:56.183Z,11.38
2022-10-11T02:55:26.246Z,11.42
2022-10-11T02:57:56.601Z,11.59
2022-10-11T03:00:26.902Z,11.83
2022-10-11T03:02:57.209Z,12.08
2022-10-11T03:05:29.842Z,12.08
2022-10-11T03:07:59.864Z,12.00
2022-10-11T03:10:29.919Z,11.94
2022-10-11T03:12:59.917Z,11.97
2022-10-11T03:15:30.051Z,12.01
2022-10-11T03:18:00.138Z,12.02
2022-10-11T03:20:32.730Z,12.06
2022-10-11T03:23:02.733Z,12.20
2022-10-11T03:25:32.783Z,12.35
2022-10-11T03:28:02.812Z,12.38
2022-10-11T03:30:32.801Z,12.45
2022-10-11T03:33:02.876Z,12.53
2022-10-11T03:35:35.652Z,12.39
2022-10-11T03:38:06.003Z,12.42
2022-10-11T03:40:36.871Z,12.37
2022-10-11T03:43:06.889Z,12.40
2022-10-11T03:45:37.209Z,12.46
2022-10-11T03:48:08.498Z,12.60
2022-10-11T03:50:41.890Z,12.75
2022-10-11T03:53:12.323Z,12.90
2022-10-11T03:55:43.775Z,13.00
2022-10-11T03:58:13.915Z,13.01
2022-10-11T04:00:43.856Z,12.97
2022-10-11T04:03:13.911Z,13.07
2022-10-11T04:05:46.497Z,13.12
2022-10-11T04:08:16.607Z,13.15
2022-10-11T04:10:46.771Z,13.01
2022-10-11T04:13:16.757Z,13.11
2022-10-11T04:15:46.827Z,13.24
2022-10-11T04:18:16.911Z,13.26
2022-10-11T04:20:49.534Z,13.31
2022-10-11T04:23:19.543Z,13.33
2022-10-11T04:25:49.571Z,13.34
2022-10-11T04:28:19.875Z,13.27
2022-10-11T04:30:50.001Z,13.21
2022-10-11T04:33:20.376Z,13.14
2022-10-11T04:35:57.178Z,13.09
2022-10-11T04:38:27.155Z,13.18
2022-10-11T04:40:57.166Z,13.21
2022-10-11T04:43:27.207Z,13.22
2022-10-11T04:45:57.180Z,13.22
2022-10-11T04:48:27.339Z,13.19
2022-10-11T04:51:00.167Z,13.32
2022-10-11T04:53:30.207Z,13.42
2022-10-11T04:56:02.680Z,13.48
2022-10-11T04:58:34.939Z,13.49
2022-10-11T05:01:04.935Z,13.54
2022-10-11T05:03:34.976Z,13.59
2022-10-11T05:06:09.072Z,13.55
2022-10-11T05:08:39.663Z,13.58
2022-10-11T05:11:15.818Z,13.58
2022-10-11T05:13:47.929Z,13.48
2022-10-11T05:16:19.593Z,13.49
2022-10-11T05:18:49.587Z,13.45
2022-10-11T05:21:25.293Z,13.42
2022-10-11T05:23:57.900Z,13.40
2022-10-11T05:26:30.154Z,13.35
2022-10-11T05:29:00.283Z,13.39
2022-10-11T05:31:30.495Z,13.17
2022-10-11T05:34:00.493Z,13.22
2022-10-11T05:36:33.114Z,13.20
2022-10-11T05:39:03.141Z,13.14
2022-10-11T05:41:33.306Z,13.14
2022-10-11T05:44:03.354Z,13.14
2022-10-11T05:46:33.373Z,12.99
2022-10-11T05:49:03.372Z,13.02
2022-10-11T05:51:35.996Z,13.01
2022-10-11T05:54:06.055Z,12.98
2022-10-11T05:56:36.067Z,12.92
2022-10-11T05:59:07.740Z,12.97
2022-10-11T06:01:37.800Z,12.97
2022-10-11T06:04:08.513Z,13.00
2022-10-11T06:06:41.115Z,13.05
2022-10-11T06:09:12.229Z,13.09
2022-10-11T06:11:42.890Z,13.01
2022-10-11T06:14:13.369Z,13.00
2022-10-11T06:16:43.606Z,13.05
2022-10-11T06:19:13.650Z,13.11
2022-10-11T06:21:46.776Z,13.12
2022-10-11T06:24:16.881Z,13.14
2022-10-11T06:26:46.865Z,13.19
2022-10-11T06:29:16.872Z,13.19
2022-10-11T06:31:47.114Z,13.32
2022-10-11T06:34:18.030Z,13.38
2022-10-11T06:36:50.555Z,13.29
2022-10-11T06:39:20.663Z,13.29
2022-10-11T06:41:50.823Z,13.19
2022-10-11T06:44:21.445Z,13.13
2022-10-11T06:46:51.494Z,13.16
2022-10-11T06:49:23.475Z,13.07
2022-10-11T06:51:56.315Z,13.02
2022-10-11T06:54:26.558Z,13.06
2022-10-11T06:56:56.625Z,13.03
2022-10-11T06:59:26.686Z,12.96
2022-10-11T07:01:56.640Z,12.95
2022-10-11T07:04:26.754Z,12.99
2022-10-11T07:06:59.371Z,12.97
2022-10-11T07:09:30.828Z,12.93
2022-10-11T07:12:00.906Z,13.00
2022-10-11T07:14:31.191Z,13.09
2022-10-11T07:17:01.246Z,13.17
2022-10-11T07:19:31.555Z,13.04
2022-10-11T07:22:04.600Z,13.18
2022-10-11T07:24:34.730Z,13.11
2022-10-11T07:27:04.748Z,13.18
2022-10-11T07:29:34.793Z,13.33
2022-10-11T07:32:04.802Z,13.35
2022-10-11T07:34:34.845Z,13.46
2022-10-11T07:37:07.422Z,13.56
2022-10-11T07:39:37.908Z,13.64
2022-10-11T07:42:09.899Z,13.80
2022-10-11T07:44:39.917Z,13.77
2022-10-11T07:47:11.390Z,13.85
2022-10-11T07:49:41.591Z,13.86
2022-10-11T07:52:14.199Z,14.19
2022-10-11T07:54:44.300Z,14.11
2022-10-11T07:57:15.103Z,14.21
2022-10-11T07:59:49.999Z,14.53
2022-10-11T08:02:20.346Z,14.57
2022-10-11T08:04:50.449Z,14.61
2022-10-11T08:07:23.110Z,14.50
2022-10-11T08:09:53.188Z,14.84
2022-10-11T08:12:23.175Z,14.87
2022-10-11T08:14:53.213Z,14.89
2022-10-11T08:17:23.318Z,14.78
2022-10-11T08:19:53.532Z,14.76
2022-10-11T08:22:26.150Z,14.77
2022-10-11T08:24:56.149Z,14.71
2022-10-11T08:27:26.434Z,14.86
2022-10-11T08:29:56.437Z,14.72
2022-10-11T08:32:26.474Z,14.88
2022-10-11T08:34:56.890Z,15.15
2022-10-11T08:37:29.659Z,15.23
2022-10-11T08:39:59.645Z,15.40
2022-10-11T08:42:41.196Z,15.38
2022-10-11T08:45:25.421Z,15.71
2022-10-11T08:48:09.847Z,15.99
2022-10-11T08:50:42.105Z,15.90
2022-10-11T08:53:26.707Z,15.83
2022-10-11T08:55:58.295Z,15.60
2022-10-11T08:58:42.685Z,15.29
2022-10-11T09:01:22.004Z,15.62
2022-10-11T09:03:53.587Z,15.64
2022-10-11T09:06:39.562Z,15.63
2022-10-11T09:09:31.730Z,15.45
2022-10-11T09:12:20.601Z,15.47
2022-10-11T09:15:18.348Z,15.54
2022-10-11T09:18:22.294Z,15.90
2022-10-11T09:21:11.811Z,15.43
2022-10-11T09:24:07.479Z,15.38
2022-10-11T09:26:54.162Z,15.46
2022-10-11T09:29:50.271Z,15.28
2022-10-11T09:32:23.820Z,15.03
2022-10-11T09:35:04.228Z,14.98
2022-10-11T09:37:45.099Z,15.06
2022-10-11T09:40:36.628Z,14.78
2022-10-11T09:43:11.145Z,14.68
2022-10-11T09:45:49.304Z,14.85
2022-10-11T09:48:25.614Z,14.87
2022-10-11T09:51:01.166Z,14.99
2022-10-11T09:53:58.496Z,15.06
2022-10-11T09:56:31.720Z,15.01
2022-10-11T09:59:29.479Z,15.03
2022-10-11T10:02:25.009Z,15.21
2022-10-11T10:05:04.295Z,15.18
2022-10-11T10:07:37.874Z,15.00
2022-10-11T10:10:34.045Z,15.21
2022-10-11T10:13:07.348Z,15.52
2022-10-11T10:15:47.809Z,15.75
2022-10-11T10:18:26.998Z,15.54
2022-10-11T10:21:00.230Z,15.53
2022-10-11T10:23:33.375Z,15.47
2022-10-11T10:26:17.249Z,15.48
2022-10-11T10:29:18.642Z,15.63
2022-10-11T10:32:14.994Z,15.68
2022-10-11T10:35:03.092Z,15.72
2022-10-11T10:37:41.607Z,16.04
2022-10-11T10:40:18.786Z,16.24
2022-10-11T10:42:48.947Z,16.28
2022-10-11T10:45:22.101Z,15.97
2022-10-11T10:48:17.709Z,15.88
2022-10-11T10:50:58.647Z,16.05
2022-10-11T10:53:37.023Z,16.36
2022-10-11T10:56:15.099Z,16.25
2022-10-11T10:59:14.307Z,16.23
2022-10-11T11:02:06.715Z,17.00
2022-10-11T11:05:01.144Z,17.59
2022-10-11T11:07:39.595Z,17.85
2022-10-11T11:10:18.230Z,17.65
2022-10-11T11:12:58.237Z,18.09
2022-10-11T11:15:38.557Z,18.41
2022-10-11T11:18:29.959Z,18.98
2022-10-11T11:21:29.459Z,19.31
2022-10-11T11:24:15.828Z,19.47
2022-10-11T11:26:55.267Z,19.14
2022-10-11T11:29:45.971Z,19.40
2022-10-11T11:32:32.667Z,19.41
2022-10-11T11:35:06.887Z,18.90
2022-10-11T11:37:44.141Z,18.65
2022-10-11T11:40:21.316Z,18.92
2022-10-11T11:42:56.680Z,19.29
2022-10-11T11:45:33.812Z,19.70
2022-10-11T11:48:09.383Z,19.59
2022-10-11T11:50:45.115Z,19.19
2022-10-11T11:53:27.459Z,18.47
2022-10-11T11:56:05.808Z,18.07
2022-10-11T11:58:48.007Z,17.81
2022-10-11T12:01:33.419Z,17.70
2022-10-11T12:04:10.054Z,17.52
2022-10-11T12:07:04.095Z,17.50
2022-10-11T12:09:37.216Z,17.75
2022-10-11T12:12:10.148Z,17.73
2022-10-11T12:14:43.347Z,17.53
2022-10-11T12:17:24.453Z,17.69
2022-10-11T12:20:19.116Z,17.69
2022-10-11T12:23:00.946Z,18.06
2022-10-11T12:25:42.850Z,17.79
2022-10-11T12:29:05.344Z,18.04
2022-10-11T12:31:42.409Z,17.96
2022-10-11T12:34:38.107Z,17.86
2022-10-11T12:37:53.992Z,17.86
2022-10-11T12:40:45.983Z,17.84
2022-10-11T12:43:39.023Z,18.39
2022-10-11T12:46:42.944Z,17.72
2022-10-11T12:49:38.936Z,17.60
2022-10-11T12:52:31.930Z,17.58
2022-10-11T12:55:38.141Z,17.47
2022-10-11T12:58:38.267Z,17.42
2022-10-11T13:01:37.657Z,17.73
2022-10-11T13:04:12.791Z,18.07
2022-10-11T13:06:53.528Z,17.90
2022-10-11T13:09:33.817Z,17.96
2022-10-11T13:12:10.232Z,18.08
2022-10-11T13:14:49.526Z,17.94
2022-10-11T13:17:24.054Z,18.28
2022-10-11T13:20:04.100Z,18.16
2022-10-11T13:22:40.983Z,17.89
2022-10-11T13:25:17.898Z,17.68
2022-10-11T13:27:48.676Z,17.67
2022-10-11T13:30:27.720Z,17.43
2022-10-11T13:32:58.214Z,17.15
2022-10-11T13:35:36.418Z,17.00
2022-10-11T13:38:11.085Z,16.69
2022-10-11T13:40:41.645Z,16.89
2022-10-11T13:43:11.989Z,16.86
2022-10-11T13:45:45.135Z,16.71
2022-10-11T13:48:19.091Z,16.66
2022-10-11T13:51:08.174Z,16.68
2022-10-11T13:53:38.590Z,16.83
2022-10-11T13:56:12.558Z,16.83
2022-10-11T13:58:50.559Z,17.05
2022-10-11T14:01:27.982Z,17.29
2022-10-11T14:04:03.547Z,17.34
2022-10-11T14:06:49.686Z,17.25
2022-10-11T14:09:25.876Z,17.20
2022-10-11T14:11:56.771Z,17.23
2022-10-11T14:14:46.213Z,17.03
2022-10-11T14:17:22.720Z,16.81
2022-10-11T14:20:17.334Z,16.89
2022-10-11T14:22:47.516Z,17.14
2022-10-11T14:25:17.747Z,17.12
2022-10-11T14:27:47.972Z,16.65
2022-10-11T14:30:25.715Z,16.87
2022-10-11T14:33:03.440Z,16.77
2022-10-11T14:35:37.458Z,16.67
2022-10-11T14:38:07.404Z,16.70
2022-10-11T14:40:37.548Z,16.37
2022-10-11T14:43:08.015Z,16.41
2022-10-11T14:45:38.131Z,16.37
2022-10-11T14:48:10.864Z,16.26
2022-10-11T14:50:48.437Z,15.98
2022-10-11T14:53:18.717Z,16.12
2022-10-11T14:55:49.082Z,16.07
2022-10-11T14:58:20.981Z,16.20
2022-10-11T15:00:51.019Z,16.22
2022-10-11T15:03:23.620Z,16.07
2022-10-11T15:05:53.711Z,15.88
2022-10-11T15:08:23.713Z,16.14
2022-10-11T15:10:53.963Z,15.77
2022-10-11T15:13:27.764Z,15.60
2022-10-11T15:15:57.835Z,15.46
2022-10-11T15:18:30.472Z,15.54
2022-10-11T15:21:00.661Z,15.66
2022-10-11T15:23:30.778Z,15.82
2022-10-11T15:26:00.886Z,15.86
2022-10-11T15:28:34.184Z,15.80
2022-10-11T15:31:04.287Z,15.88
2022-10-11T15:33:36.892Z,15.80
2022-10-11T15:36:08.727Z,15.69
2022-10-11T15:38:39.342Z,15.56
2022-10-11T15:41:09.938Z,15.41
2022-10-11T15:43:39.875Z,15.30
2022-10-11T15:46:10.065Z,15.24
2022-10-11T15:48:42.763Z,15.35
2022-10-11T15:51:13.090Z,15.42
2022-10-11T15:53:43.278Z,15.51
2022-10-11T15:56:19.456Z,15.55
2022-10-11T15:58:49.585Z,15.53
2022-10-11T16:01:22.716Z,15.40
2022-10-11T16:03:55.490Z,15.25
2022-10-11T16:06:26.273Z,15.13
2022-10-11T16:08:56.293Z,15.23
2022-10-11T16:11:26.247Z,15.01
2022-10-11T16:13:56.194Z,15.00
2022-10-11T16:16:26.438Z,15.03
2022-10-11T16:18:59.004Z,15.03
2022-10-11T16:21:29.161Z,14.93
2022-10-11T16:23:59.132Z,14.68
2022-10-11T16:26:29.138Z,14.63
2022-10-11T16:28:59.255Z,14.63
2022-10-11T16:31:29.343Z,14.66
2022-10-11T16:34:02.018Z,14.44
2022-10-11T16:36:36.603Z,14.58
2022-10-11T16:39:11.731Z,14.42
2022-10-11T16:41:42.145Z,14.39
2022-10-11T16:44:16.392Z,14.24
2022-10-11T16:46:48.512Z,14.19
2022-10-11T16:49:24.599Z,14.00
2022-10-11T16:51:59.056Z,14.03
2022-10-11T16:54:30.356Z,13.91
2022-10-11T16:57:01.124Z,13.94
2022-10-11T16:59:31.192Z,13.95
2022-10-11T17:02:01.313Z,13.83
2022-10-11T17:04:34.074Z,13.83
2022-10-11T17:07:04.433Z,13.79
2022-10-11T17:09:34.428Z,13.68
2022-10-11T17:12:04.468Z,13.60
2022-10-11T17:14:34.473Z,13.52
2022-10-11T17:17:05.159Z,13.60
2022-10-11T17:19:42.601Z,13.59
2022-10-11T17:22:16.613Z,13.58
2022-10-11T17:24:47.528Z,13.61
2022-10-11T17:27:17.729Z,13.58
2022-10-11T17:29:47.729Z,13.61
2022-10-11T17:32:17.743Z,13.59
2022-10-11T17:34:50.329Z,13.56
2022-10-11T17:37:20.830Z,13.48
2022-10-11T17:39:51.267Z,13.41
2022-10-11T17:42:21.433Z,13.37
2022-10-11T17:44:51.776Z,13.41
2022-10-11T17:47:21.812Z,13.31
2022-10-11T17:49:54.415Z,13.33
2022-10-11T17:52:24.505Z,13.21
2022-10-11T17:54:54.520Z,13.27
2022-10-11T17:57:24.662Z,13.27
2022-10-11T17:59:54.687Z,13.28
2022-10-11T18:02:24.675Z,13.27
2022-10-11T18:04:57.299Z,13.38
2022-10-11T18:07:27.371Z,13.49
2022-10-11T18:09:57.389Z,13.48
2022-10-11T18:12:28.511Z,13.48
2022-10-11T18:14:58.584Z,13.47
2022-10-11T18:17:28.775Z,13.34
2022-10-11T18:20:01.476Z,13.39
2022-10-11T18:22:31.585Z,13.23
2022-10-11T18:25:01.606Z,13.21
2022-10-11T18:27:31.955Z,13.11
2022-10-11T18:30:01.966Z,13.02
2022-10-11T18:32:32.011Z,13.01
2022-10-11T18:35:04.630Z,12.97
2022-10-11T18:37:34.657Z,12.87
2022-10-11T18:40:04.668Z,12.83
2022-10-11T18:42:34.673Z,12.79
2022-10-11T18:45:04.700Z,12.77
2022-10-11T18:47:34.839Z,12.81
2022-10-11T18:50:09.564Z,12.68
2022-10-11T18:52:43.776Z,12.71
2022-10-11T18:55:14.580Z,12.71
2022-10-11T18:57:45.029Z,12.65
2022-10-11T19:00:39.526Z,12.58
2022-10-11T19:03:07.458Z,12.59
2022-10-11T19:05:41.709Z,12.58
2022-10-11T19:08:11.753Z,12.51
2022-10-11T19:10:41.805Z,12.46
2022-10-11T19:13:11.799Z,12.48
2022-10-11T19:15:41.790Z,12.42
2022-10-11T19:18:13.470Z,12.47
2022-10-11T19:20:47.618Z,12.57
2022-10-11T19:23:17.595Z,12.50
2022-10-11T19:25:47.587Z,12.55
2022-10-11T19:28:18.339Z,12.55
2022-10-11T19:30:48.424Z,12.56
2022-10-11T19:33:18.432Z,12.54
2022-10-11T19:35:59.982Z,12.41
2022-10-11T19:38:29.997Z,12.39
2022-10-11T19:41:00.091Z,12.47
2022-10-11T19:43:30.586Z,12.37
2022-10-11T19:46:03.618Z,12.45
2022-10-11T19:48:34.370Z,12.50
2022-10-11T19:51:10.331Z,12.53
2022-10-11T19:53:40.546Z,12.51
2022-10-11T19:56:14.546Z,12.57
2022-10-11T19:58:45.730Z,12.71
2022-10-11T20:01:18.893Z,12.78
2022-10-11T20:03:52.726Z,12.77
2022-10-11T20:06:27.866Z,12.92
2022-10-11T20:09:23.875Z,13.00
2022-10-11T20:11:49.142Z,13.00
2022-10-11T20:14:19.165Z,13.09
2022-10-11T20:16:51.960Z,13.09
2022-10-11T20:19:27.701Z,13.04
2022-10-11T20:22:02.896Z,13.12
2022-10-11T20:24:34.462Z,12.94
2022-10-11T20:27:09.752Z,12.95
2022-10-11T20:29:39.717Z,13.13
2022-10-11T20:32:09.763Z,13.19
2022-10-11T20:34:39.920Z,13.21
2022-10-11T20:37:12.755Z,13.35
2022-10-11T20:39:42.777Z,13.35
2022-10-11T20:42:13.032Z,13.43
2022-10-11T20:44:43.745Z,13.50
2022-10-11T20:47:13.802Z,13.54
2022-10-11T20:49:43.839Z,13.59
2022-10-11T20:52:16.848Z,13.67
2022-10-11T20:54:46.861Z,13.72
2022-10-11T20:57:16.892Z,13.67
2022-10-11T20:59:47.346Z,13.59
2022-10-11T21:02:19.133Z,13.76
2022-10-11T21:04:49.274Z,13.82
2022-10-11T21:07:22.091Z,13.89
2022-10-11T21:09:52.148Z,13.83
2022-10-11T21:12:22.177Z,13.91
2022-10-11T21:14:52.186Z,13.91
2022-10-11T21:17:22.322Z,13.98
2022-10-11T21:19:52.336Z,14.07
2022-10-11T21:22:24.932Z,14.09
2022-10-11T21:24:55.046Z,14.16
2022-10-11T21:27:25.098Z,14.16
2022-10-11T21:29:55.281Z,14.18
2022-10-11T21:32:25.465Z,14.22
2022-10-11T21:34:55.504Z,14.13
2022-10-11T21:37:28.090Z,14.23
2022-10-11T21:39:58.094Z,14.18
2022-10-11T21:42:29.644Z,14.06
2022-10-11T21:44:59.809Z,13.96
2022-10-11T21:47:31.416Z,13.77
2022-10-11T21:50:01.558Z,13.68
2022-10-11T21:52:34.425Z,13.64
2022-10-11T21:55:04.657Z,13.53
2022-10-11T21:57:34.659Z,13.44
2022-10-11T22:00:04.770Z,13.39
2022-10-11T22:02:43.365Z,13.43
2022-10-11T22:05:13.593Z,13.53
2022-10-11T22:07:46.218Z,13.57
2022-10-11T22:10:16.278Z,13.44
2022-10-11T22:12:47.214Z,13.30
2022-10-11T22:15:17.397Z,13.22
2022-10-11T22:17:47.399Z,13.16
2022-10-11T22:20:17.538Z,13.15
2022-10-11T22:22:50.106Z,13.15
2022-10-11T22:25:20.217Z,13.18
2022-10-11T22:27:50.326Z,13.08
2022-10-11T22:30:20.458Z,13.16
2022-10-11T22:32:50.520Z,13.23
2022-10-11T22:35:20.622Z,13.33
2022-10-11T22:37:53.335Z,13.40
2022-10-11T22:40:23.833Z,13.60
2022-10-11T22:42:53.831Z,13.74
2022-10-11T22:45:23.815Z,13.74
2022-10-11T22:47:53.804Z,13.62
2022-10-11T22:50:23.819Z,13.54
2022-10-11T22:52:56.419Z,13.39
2022-10-11T22:55:26.586Z,13.36
2022-10-11T22:57:57.223Z,13.41
2022-10-11T23:00:27.190Z,13.49
2022-10-11T23:02:57.262Z,13.67
2022-10-11T23:05:27.574Z,13.77
2022-10-11T23:08:00.179Z,13.77
2022-10-11T23:10:31.099Z,13.83
2022-10-11T23:13:01.082Z,13.85
2022-10-11T23:15:31.098Z,13.72
2022-10-11T23:18:01.113Z,13.64
2022-10-11T23:20:31.094Z,13.47
2022-10-11T23:23:03.695Z,13.47
2022-10-11T23:25:33.710Z,13.41
2022-10-11T23:28:04.083Z,13.44
2022-10-11T23:30:34.174Z,13.38
2022-10-11T23:33:04.222Z,13.44
2022-10-11T23:35:34.229Z,13.44
2022-10-11T23:38:06.826Z,13.45
2022-10-11T23:40:36.847Z,13.84
2022-10-11T23:43:06.829Z,13.89
2022-10-11T23:45:36.894Z,13.95
2022-10-11T23:48:07.583Z,13.82
2022-10-11T23:50:37.572Z,13.82
2022-10-11T23:53:10.272Z,13.91
2022-10-11T23:55:41.005Z,14.17
2022-10-11T23:58:11.915Z,14.14
